Time;durP1;ratioP1;P1;durP2;ratioP2;P2;SDS_P1;SDS_P2;PMS_P1;PMS_P2;Temp;Humidity;BMP_temperature;BMP_pressure;BME280_temperature;BME280_humidity;BME280_pressure;Samples;Min_cycle;Max_cycle;Signal;HPM_P1;HPM_P2
2022/04/16 00:01:34;;;;;;;;;;;14.70;76.40;;;;;;5149995;27;19968;-73
2022/04/16 00:04:00;;;;;;;;;;;14.60;76.60;;;;;;5149627;27;20343;-73
2022/04/16 00:06:26;;;;;;;;;;;14.50;76.60;;;;;;5149626;27;20019;-73
2022/04/16 00:08:51;;;;;;;;;;;14.40;76.60;;;;;;5149562;27;19972;-73
2022/04/16 00:11:17;;;;;;;;;;;14.30;76.60;;;;;;5149553;27;19952;-73
2022/04/16 00:13:42;;;;;;;;;;;14.20;76.60;;;;;;5149534;27;19921;-72
2022/04/16 00:16:09;;;;;;;;;;;14.20;76.80;;;;;;5149142;27;20365;-72
2022/04/16 00:18:34;;;;;;;;;;;14.10;76.80;;;;;;5149537;27;19922;-73
2022/04/16 00:21:04;;;;;;;;;;;14.00;76.90;;;;;;5149443;27;19911;-73
2022/04/16 00:23:30;;;;;;;;;;;14.00;77.00;;;;;;5149597;27;19915;-73
2022/04/16 00:25:56;;;;;;;;;;;14.00;77.10;;;;;;5149554;27;19911;-73
2022/04/16 00:28:22;;;;;;;;;;;13.90;77.20;;;;;;5149434;27;20033;-73
2022/04/16 00:30:48;;;;;;;;;;;13.90;77.30;;;;;;5149751;27;20023;-73
2022/04/16 00:33:13;;;;;;;;;;;13.80;77.40;;;;;;5149560;27;19914;-73
2022/04/16 00:35:42;;;;;;;;;;;13.80;77.50;;;;;;5149389;27;19918;-72
2022/04/16 00:38:08;;;;;;;;;;;13.80;77.70;;;;;;5149516;27;19911;-72
2022/04/16 00:40:34;;;;;;;;;;;13.80;77.70;;;;;;5149636;27;19949;-73
2022/04/16 00:43:00;;;;;;;;;;;13.80;77.70;;;;;;5149523;27;19914;-73
2022/04/16 00:45:26;;;;;;;;;;;13.80;77.90;;;;;;5149613;27;19911;-73
2022/04/16 00:47:53;;;;;;;;;;;13.80;78.30;;;;;;5149644;27;19976;-73
2022/04/16 00:50:19;;;;;;;;;;;13.80;78.40;;;;;;5149461;27;19908;-73
2022/04/16 00:52:45;;;;;;;;;;;13.80;78.60;;;;;;5149651;27;20006;-73
2022/04/16 00:55:11;;;;;;;;;;;13.80;78.80;;;;;;5149368;27;19911;-73
2022/04/16 00:57:37;;;;;;;;;;;13.70;78.80;;;;;;5149334;27;19971;-73
2022/04/16 01:00:03;;;;;;;;;;;13.70;78.90;;;;;;5149489;27;19992;-73
2022/04/16 01:02:29;;;;;;;;;;;13.70;79.20;;;;;;5131042;27;19911;-73
2022/04/16 01:04:54;;;;;;;;;;;13.60;79.30;;;;;;5149330;27;19911;-73
2022/04/16 01:07:24;;;;;;;;;;;13.60;79.30;;;;;;5149387;27;19911;-72
2022/04/16 01:09:50;;;;;;;;;;;13.50;79.20;;;;;;5149126;27;19919;-72
2022/04/16 01:12:15;;;;;;;;;;;13.50;79.20;;;;;;5149226;27;19918;-73
2022/04/16 01:14:41;;;;;;;;;;;13.40;79.00;;;;;;5149232;27;19908;-72
2022/04/16 01:17:07;;;;;;;;;;;13.30;79.10;;;;;;5130766;27;19919;-73
2022/04/16 01:19:34;;;;;;;;;;;13.20;79.10;;;;;;5149283;27;19930;-73
2022/04/16 01:22:00;;;;;;;;;;;13.10;79.10;;;;;;5149191;27;20006;-73
2022/04/16 01:24:26;;;;;;;;;;;13.10;79.10;;;;;;5149296;27;20634;-73
2022/04/16 01:26:51;;;;;;;;;;;13.00;79.10;;;;;;5149228;27;19907;-73
2022/04/16 01:29:17;;;;;;;;;;;12.90;79.10;;;;;;5151648;27;20047;-73
2022/04/16 01:31:42;;;;;;;;;;;12.80;79.20;;;;;;5153084;27;19915;-73
2022/04/16 01:34:08;;;;;;;;;;;12.80;79.40;;;;;;5152893;27;19915;-73
2022/04/16 01:36:34;;;;;;;;;;;12.70;79.40;;;;;;5134214;27;20031;-73
2022/04/16 01:39:00;;;;;;;;;;;12.60;79.40;;;;;;5153051;27;19911;-73
2022/04/16 01:41:29;;;;;;;;;;;12.50;79.50;;;;;;5153025;27;19918;-73
2022/04/16 01:43:56;;;;;;;;;;;12.40;79.50;;;;;;5152764;27;20357;-73
2022/04/16 01:46:21;;;;;;;;;;;12.40;79.70;;;;;;5134173;27;19913;-73
2022/04/16 01:48:49;;;;;;;;;;;12.30;79.70;;;;;;5152691;27;19914;-72
2022/04/16 01:51:17;;;;;;;;;;;12.30;79.80;;;;;;5152766;27;19930;-73
2022/04/16 01:53:43;;;;;;;;;;;12.20;79.80;;;;;;5152922;27;20111;-73
2022/04/16 01:56:09;;;;;;;;;;;12.20;79.90;;;;;;5152735;27;19911;-73
2022/04/16 01:58:38;;;;;;;;;;;12.20;79.90;;;;;;5152512;27;20001;-73
2022/04/16 02:01:04;;;;;;;;;;;12.20;79.90;;;;;;5152533;27;19915;-72
2022/04/16 02:03:30;;;;;;;;;;;12.20;79.90;;;;;;5152273;27;19993;-72
2022/04/16 02:05:56;;;;;;;;;;;12.30;79.80;;;;;;5152457;27;19963;-73
2022/04/16 02:08:21;;;;;;;;;;;12.30;79.60;;;;;;5152404;27;19911;-73
2022/04/16 02:10:47;;;;;;;;;;;12.30;79.50;;;;;;5152576;27;20005;-73
2022/04/16 02:13:12;;;;;;;;;;;12.40;79.30;;;;;;5152315;27;19911;-73
2022/04/16 02:15:38;;;;;;;;;;;12.30;79.10;;;;;;5152243;27;19921;-72
2022/04/16 02:18:04;;;;;;;;;;;12.30;79.00;;;;;;5152192;27;19959;-73
2022/04/16 02:20:30;;;;;;;;;;;12.30;78.90;;;;;;5152112;27;20266;-73
2022/04/16 02:22:55;;;;;;;;;;;12.30;78.80;;;;;;5152043;27;20209;-73
2022/04/16 02:25:24;;;;;;;;;;;12.30;78.80;;;;;;5152095;27;19911;-73
2022/04/16 02:27:49;;;;;;;;;;;12.20;78.70;;;;;;5152009;27;19919;-73
2022/04/16 02:30:15;;;;;;;;;;;12.20;78.70;;;;;;5133429;27;19911;-73
2022/04/16 02:32:43;;;;;;;;;;;12.20;78.60;;;;;;5152081;27;19954;-73
2022/04/16 02:35:09;;;;;;;;;;;12.20;78.50;;;;;;5151754;27;20318;-73
2022/04/16 02:37:35;;;;;;;;;;;12.20;78.40;;;;;;5151843;27;20092;-73
2022/04/16 02:40:01;;;;;;;;;;;12.20;78.30;;;;;;5151511;27;20012;-73
2022/04/16 02:42:26;;;;;;;;;;;12.20;78.30;;;;;;5133063;27;19934;-73
2022/04/16 02:47:46;;;;;;;;;;;12.20;78.20;;;;;;5077101;27;19916;-73
2022/04/16 02:50:12;;;;;;;;;;;12.20;78.10;;;;;;5151720;27;19911;-73
2022/04/16 02:52:39;;;;;;;;;;;12.10;78.40;;;;;;5132828;27;20413;-73
2022/04/16 02:55:04;;;;;;;;;;;12.00;77.80;;;;;;5151373;27;20014;-73
2022/04/16 02:57:33;;;;;;;;;;;11.90;77.90;;;;;;5151252;27;20011;-73
2022/04/16 02:59:59;;;;;;;;;;;11.80;77.90;;;;;;5151453;27;19922;-72
2022/04/16 03:02:24;;;;;;;;;;;11.70;78.10;;;;;;5151486;27;20360;-72
2022/04/16 03:04:50;;;;;;;;;;;11.60;78.10;;;;;;5151229;27;20002;-73
2022/04/16 03:07:16;;;;;;;;;;;11.50;78.20;;;;;;5151303;27;19914;-73
2022/04/16 03:09:42;;;;;;;;;;;11.40;78.30;;;;;;5151217;27;19911;-73
2022/04/16 03:12:07;;;;;;;;;;;11.30;78.50;;;;;;5151150;27;19939;-73
2022/04/16 03:17:32;;;;;;;;;;;11.10;78.50;;;;;;5151231;27;19959;-72
2022/04/16 03:19:58;;;;;;;;;;;11.00;78.40;;;;;;5150992;27;19915;-73
2022/04/16 03:22:23;;;;;;;;;;;11.00;78.40;;;;;;5151363;27;19911;-73
2022/04/16 03:24:49;;;;;;;;;;;10.90;78.50;;;;;;5150925;27;19915;-73
2022/04/16 03:27:16;;;;;;;;;;;10.80;78.40;;;;;;5150923;27;19918;-73
2022/04/16 03:29:41;;;;;;;;;;;10.80;78.60;;;;;;5150855;27;19911;-73
2022/04/16 03:32:07;;;;;;;;;;;10.70;78.50;;;;;;5150752;27;19911;-72
2022/04/16 03:34:33;;;;;;;;;;;10.60;78.50;;;;;;5150634;27;20009;-73
2022/04/16 03:36:58;;;;;;;;;;;10.60;78.70;;;;;;5150267;27;20374;-73
2022/04/16 03:39:24;;;;;;;;;;;10.50;78.60;;;;;;5150659;27;19914;-73
2022/04/16 03:41:50;;;;;;;;;;;10.50;78.60;;;;;;5150575;27;19918;-73
2022/04/16 03:44:15;;;;;;;;;;;10.40;78.80;;;;;;5150473;27;19950;-73
2022/04/16 03:46:41;;;;;;;;;;;10.40;78.80;;;;;;5132119;27;20294;-72
2022/04/16 03:49:06;;;;;;;;;;;10.40;79.10;;;;;;5150566;27;19911;-73
2022/04/16 03:51:32;;;;;;;;;;;10.40;79.20;;;;;;5149737;27;19911;-73
2022/04/16 03:59:59;;;;;;;;;;;10.40;79.40;;;;;;5150418;27;20353;-73
2022/04/16 04:02:11;;;;;;;;;;;10.40;79.90;;;;;;5150078;27;19993;-73
2022/04/16 04:04:37;;;;;;;;;;;10.30;79.70;;;;;;5150084;27;20353;-73
2022/04/16 04:07:03;;;;;;;;;;;10.30;79.90;;;;;;5150151;27;19938;-73
2022/04/16 04:09:28;;;;;;;;;;;10.30;79.70;;;;;;5131661;27;19918;-73
2022/04/16 04:11:54;;;;;;;;;;;10.30;79.80;;;;;;5150030;27;20001;-72
2022/04/16 04:14:19;;;;;;;;;;;10.30;79.90;;;;;;5150009;27;19911;-73
2022/04/16 04:16:45;;;;;;;;;;;10.20;79.90;;;;;;5149680;27;20268;-73
2022/04/16 04:19:10;;;;;;;;;;;10.20;80.20;;;;;;5149983;27;19946;-73
2022/04/16 04:21:36;;;;;;;;;;;10.20;79.90;;;;;;5149960;27;19911;-73
2022/04/16 04:24:02;;;;;;;;;;;10.20;80.00;;;;;;5150222;27;19911;-73
2022/04/16 04:26:27;;;;;;;;;;;10.10;80.00;;;;;;5150252;27;20277;-73
2022/04/16 04:28:54;;;;;;;;;;;10.10;79.80;;;;;;5149840;27;19911;-73
2022/04/16 04:31:20;;;;;;;;;;;10.10;79.70;;;;;;5149913;27;19918;-73
2022/04/16 04:33:45;;;;;;;;;;;10.00;79.80;;;;;;5149708;27;20273;-73
2022/04/16 04:36:11;;;;;;;;;;;10.00;79.70;;;;;;5149567;27;19945;-73
2022/04/16 04:38:37;;;;;;;;;;;10.00;79.80;;;;;;5149714;27;19947;-73
2022/04/16 04:41:04;;;;;;;;;;;10.00;79.90;;;;;;5149722;27;19925;-73
2022/04/16 04:43:29;;;;;;;;;;;10.00;80.00;;;;;;5149658;27;19994;-73
2022/04/16 04:45:55;;;;;;;;;;;10.00;79.90;;;;;;5131214;27;20007;-73
2022/04/16 04:48:20;;;;;;;;;;;10.10;79.90;;;;;;5149699;27;19918;-73
2022/04/16 04:50:46;;;;;;;;;;;10.10;79.80;;;;;;5149901;27;19944;-72
2022/04/16 04:53:12;;;;;;;;;;;10.10;79.90;;;;;;5131039;27;19913;-73
2022/04/16 04:55:37;;;;;;;;;;;10.10;79.70;;;;;;5130880;27;20444;-73
2022/04/16 04:58:03;;;;;;;;;;;10.00;79.60;;;;;;5149438;27;19925;-73
2022/04/16 05:00:29;;;;;;;;;;;10.00;79.60;;;;;;5149840;27;20105;-73
2022/04/16 05:02:54;;;;;;;;;;;10.00;79.50;;;;;;5151558;27;20373;-73
2022/04/16 05:05:20;;;;;;;;;;;10.00;79.50;;;;;;5153854;27;19915;-73
2022/04/16 05:07:45;;;;;;;;;;;9.90;79.40;;;;;;5153950;27;19928;-73
2022/04/16 05:10:11;;;;;;;;;;;9.90;79.40;;;;;;5153609;27;20380;-73
2022/04/16 05:12:37;;;;;;;;;;;9.80;79.30;;;;;;5153553;27;20280;-73
2022/04/16 05:15:03;;;;;;;;;;;9.80;79.30;;;;;;5153382;27;19935;-73
2022/04/16 05:17:29;;;;;;;;;;;9.80;79.40;;;;;;5134960;27;19921;-73
2022/04/16 05:19:55;;;;;;;;;;;9.80;79.30;;;;;;5134884;27;19911;-73
2022/04/16 05:22:20;;;;;;;;;;;9.80;79.40;;;;;;5134753;27;20345;-73
2022/04/16 05:24:46;;;;;;;;;;;9.80;79.20;;;;;;5153254;27;19960;-73
2022/04/16 05:27:12;;;;;;;;;;;9.80;79.10;;;;;;5153054;27;19907;-73
2022/04/16 05:29:56;;;;;;;;;;;9.80;79.20;;;;;;5153353;27;20006;-73
2022/04/16 05:32:23;;;;;;;;;;;9.90;79.30;;;;;;5134536;27;19922;-73
2022/04/16 05:34:49;;;;;;;;;;;9.90;79.10;;;;;;5152883;27;19912;-72
2022/04/16 05:37:14;;;;;;;;;;;10.00;79.20;;;;;;5153052;27;20316;-73
2022/04/16 05:39:40;;;;;;;;;;;10.00;79.20;;;;;;5134588;27;20280;-73
2022/04/16 05:42:06;;;;;;;;;;;10.10;79.30;;;;;;5152959;27;19957;-73
2022/04/16 05:44:34;;;;;;;;;;;10.20;79.20;;;;;;5151914;27;20133;-73
2022/04/16 05:46:59;;;;;;;;;;;10.20;79.20;;;;;;5153107;27;19912;-73
2022/04/16 05:49:25;;;;;;;;;;;10.30;79.20;;;;;;5152961;27;20005;-73
2022/04/16 05:51:51;;;;;;;;;;;10.40;79.30;;;;;;5117036;27;19911;-73
2022/04/16 05:54:17;;;;;;;;;;;10.50;79.20;;;;;;5153099;27;19918;-72
2022/04/16 05:56:42;;;;;;;;;;;10.60;79.30;;;;;;5152507;27;19907;-73
2022/04/16 05:59:08;;;;;;;;;;;10.60;79.30;;;;;;5152639;27;19918;-72
2022/04/16 06:01:33;;;;;;;;;;;10.70;79.30;;;;;;5152606;27;19956;-73
2022/04/16 06:03:59;;;;;;;;;;;10.80;79.20;;;;;;5152550;27;19997;-73
2022/04/16 06:06:24;;;;;;;;;;;10.90;79.20;;;;;;5152584;27;19911;-73
2022/04/16 06:08:51;;;;;;;;;;;10.90;79.10;;;;;;5152454;27;19935;-73
2022/04/16 06:11:18;;;;;;;;;;;11.00;79.10;;;;;;5152893;27;20310;-73
2022/04/16 06:13:44;;;;;;;;;;;11.10;79.10;;;;;;5151482;27;19952;-73
2022/04/16 06:16:10;;;;;;;;;;;11.20;79.10;;;;;;5152338;27;19955;-73
2022/04/16 06:18:36;;;;;;;;;;;11.20;79.00;;;;;;5152087;27;19915;-73
2022/04/16 06:21:01;;;;;;;;;;;11.20;79.00;;;;;;5152203;27;19944;-73
2022/04/16 06:23:27;;;;;;;;;;;11.20;79.00;;;;;;5152017;27;20387;-73
2022/04/16 06:25:53;;;;;;;;;;;11.20;79.00;;;;;;5116412;27;19951;-73
2022/04/16 06:28:18;;;;;;;;;;;11.20;79.00;;;;;;5133166;27;20347;-73
2022/04/16 06:30:44;;;;;;;;;;;11.20;79.00;;;;;;5151633;27;20323;-72
2022/04/16 06:33:09;;;;;;;;;;;11.30;79.10;;;;;;5151930;27;19919;-73
2022/04/16 06:35:35;;;;;;;;;;;11.30;79.10;;;;;;5151684;27;20001;-72
2022/04/16 06:38:00;;;;;;;;;;;11.30;79.10;;;;;;5133326;27;19915;-73
2022/04/16 06:40:26;;;;;;;;;;;11.30;79.10;;;;;;5133305;27;19964;-73
2022/04/16 06:42:54;;;;;;;;;;;11.40;79.10;;;;;;5151181;27;19917;-73
2022/04/16 06:45:20;;;;;;;;;;;11.40;79.10;;;;;;5151545;27;19918;-73
2022/04/16 06:47:45;;;;;;;;;;;11.50;79.10;;;;;;5151681;27;19915;-73
2022/04/16 06:50:11;;;;;;;;;;;11.50;79.00;;;;;;5151715;27;19907;-73
2022/04/16 06:52:37;;;;;;;;;;;11.60;79.00;;;;;;5151572;27;20357;-73
2022/04/16 06:55:03;;;;;;;;;;;11.60;79.00;;;;;;5151406;27;19910;-73
2022/04/16 06:57:29;;;;;;;;;;;11.70;79.10;;;;;;5151239;27;20399;-73
2022/04/16 06:59:54;;;;;;;;;;;11.80;79.20;;;;;;5151277;27;19942;-73
2022/04/16 07:02:20;;;;;;;;;;;11.90;79.20;;;;;;5151428;27;20357;-73
2022/04/16 07:04:45;;;;;;;;;;;12.00;79.30;;;;;;5132688;27;19915;-73
2022/04/16 07:07:11;;;;;;;;;;;12.00;79.30;;;;;;5151306;27;19945;-72
2022/04/16 07:09:40;;;;;;;;;;;12.20;79.30;;;;;;5151142;27;20376;-73
2022/04/16 07:12:07;;;;;;;;;;;12.30;79.20;;;;;;5151127;27;19907;-72
2022/04/16 07:14:33;;;;;;;;;;;12.50;79.20;;;;;;5150705;27;19919;-73
2022/04/16 07:16:59;;;;;;;;;;;12.60;79.10;;;;;;5150876;27;19919;-73
2022/04/16 07:19:24;;;;;;;;;;;12.80;79.10;;;;;;5150773;27;19911;-73
2022/04/16 07:21:50;;;;;;;;;;;12.90;79.00;;;;;;5150847;27;20011;-73
2022/04/16 07:24:15;;;;;;;;;;;13.00;79.00;;;;;;5131881;27;19928;-73
2022/04/16 07:26:41;;;;;;;;;;;13.10;78.90;;;;;;5149452;27;19911;-73
2022/04/16 07:29:06;;;;;;;;;;;13.10;78.80;;;;;;5150632;27;19915;-73
2022/04/16 07:31:32;;;;;;;;;;;13.20;78.80;;;;;;5150667;27;19917;-73
2022/04/16 07:33:57;;;;;;;;;;;13.30;78.90;;;;;;5150304;27;19940;-73
2022/04/16 07:36:23;;;;;;;;;;;13.50;79.00;;;;;;5150436;27;20359;-73
2022/04/16 07:38:48;;;;;;;;;;;13.70;79.00;;;;;;5150242;27;20265;-73
2022/04/16 07:41:14;;;;;;;;;;;14.00;79.10;;;;;;5150354;27;19975;-73
2022/04/16 07:43:39;;;;;;;;;;;14.30;78.80;;;;;;5150314;27;19915;-73
2022/04/16 07:46:05;;;;;;;;;;;14.60;78.70;;;;;;5150301;27;19911;-73
2022/04/16 07:48:31;;;;;;;;;;;15.00;78.80;;;;;;5150247;27;19937;-73
2022/04/16 07:50:56;;;;;;;;;;;15.30;78.50;;;;;;5150013;27;19907;-73
2022/04/16 07:53:22;;;;;;;;;;;15.50;78.40;;;;;;5149939;27;19967;-73
2022/04/16 07:55:47;;;;;;;;;;;15.60;78.00;;;;;;5149931;27;20004;-73
2022/04/16 07:58:13;;;;;;;;;;;15.60;77.80;;;;;;5149400;27;19911;-73
2022/04/16 08:00:39;;;;;;;;;;;15.60;77.30;;;;;;5149490;27;19964;-63
2022/04/16 08:03:05;;;;;;;;;;;15.50;77.20;;;;;;5149358;27;19931;-73
2022/04/16 08:05:30;;;;;;;;;;;15.40;77.50;;;;;;5131088;27;20369;-73
2022/04/16 08:07:56;;;;;;;;;;;15.40;77.50;;;;;;5149580;27;19918;-73
2022/04/16 08:10:21;;;;;;;;;;;15.40;77.80;;;;;;5149004;27;19907;-73
2022/04/16 08:12:47;;;;;;;;;;;15.60;77.80;;;;;;5149064;27;19922;-73
2022/04/16 08:15:12;;;;;;;;;;;15.80;77.90;;;;;;5148594;27;20318;-73
2022/04/16 08:17:38;;;;;;;;;;;16.00;77.10;;;;;;5148980;27;20018;-73
2022/04/16 08:20:07;;;;;;;;;;;16.20;77.30;;;;;;5149235;27;20019;-73
2022/04/16 08:22:34;;;;;;;;;;;16.60;77.60;;;;;;5130677;27;20272;-73
2022/04/16 08:27:45;;;;;;;;;;;17.60;77.30;;;;;;5148437;27;19911;-73
2022/04/16 08:30:12;;;;;;;;;;;18.00;77.10;;;;;;5149024;27;20349;-73
2022/04/16 08:32:37;;;;;;;;;;;18.20;76.80;;;;;;5130673;27;20308;-74
2022/04/16 08:35:04;;;;;;;;;;;18.40;76.70;;;;;;5148839;27;19907;-73
2022/04/16 08:37:31;;;;;;;;;;;18.50;76.70;;;;;;5148682;27;19919;-73
2022/04/16 08:39:56;;;;;;;;;;;18.60;77.10;;;;;;5148666;27;19961;-73
2022/04/16 08:42:22;;;;;;;;;;;18.80;76.70;;;;;;5130575;27;19947;-73
2022/04/16 08:44:48;;;;;;;;;;;18.90;76.20;;;;;;5149021;27;20321;-73
2022/04/16 08:47:14;;;;;;;;;;;18.90;75.70;;;;;;5149070;27;19950;-73
2022/04/16 08:49:41;;;;;;;;;;;19.10;76.10;;;;;;5149010;27;19995;-73
2022/04/16 08:52:08;;;;;;;;;;;19.50;76.20;;;;;;5148542;27;20248;-73
2022/04/16 08:54:35;;;;;;;;;;;20.00;75.60;;;;;;5129805;27;19956;-73
2022/04/16 08:57:01;;;;;;;;;;;20.40;75.50;;;;;;5149086;27;19915;-73
2022/04/16 08:59:26;;;;;;;;;;;20.70;74.50;;;;;;5150831;27;19923;-73
2022/04/16 09:01:52;;;;;;;;;;;20.70;73.70;;;;;;5150037;27;20349;-73
2022/04/16 09:04:19;;;;;;;;;;;20.50;73.10;;;;;;5148903;27;19934;-73
2022/04/16 09:06:54;;;;;;;;;;;20.20;73.40;;;;;;5148840;27;20006;-72
2022/04/16 09:09:20;;;;;;;;;;;19.80;72.20;;;;;;5148711;27;20060;-73
2022/04/16 09:11:48;;;;;;;;;;;19.50;72.10;;;;;;5148681;27;19911;-73
2022/04/16 09:14:14;;;;;;;;;;;19.30;72.50;;;;;;5149071;27;19907;-73
2022/04/16 09:16:40;;;;;;;;;;;19.60;73.80;;;;;;5148481;27;19918;-73
2022/04/16 09:19:10;;;;;;;;;;;19.80;72.80;;;;;;5148406;27;20387;-73
2022/04/16 09:21:36;;;;;;;;;;;20.00;72.70;;;;;;5130239;27;19914;-73
2022/04/16 09:24:02;;;;;;;;;;;20.40;73.90;;;;;;5148324;27;19907;-73
2022/04/16 09:26:32;;;;;;;;;;;21.00;74.10;;;;;;5148276;27;19911;-73
2022/04/16 09:29:12;;;;;;;;;;;21.70;73.90;;;;;;5129601;27;19912;-73
2022/04/16 09:31:38;;;;;;;;;;;21.90;72.70;;;;;;5148764;27;19911;-73
2022/04/16 09:34:05;;;;;;;;;;;21.60;70.60;;;;;;5148228;27;19930;-73
2022/04/16 09:36:30;;;;;;;;;;;21.10;69.70;;;;;;5129936;27;19933;-73
2022/04/16 09:39:06;;;;;;;;;;;20.70;69.70;;;;;;5148517;27;19911;-73
2022/04/16 09:41:33;;;;;;;;;;;20.20;69.80;;;;;;5148551;27;19912;-73
2022/04/16 09:43:58;;;;;;;;;;;20.00;70.00;;;;;;5148244;27;19930;-73
2022/04/16 09:46:26;;;;;;;;;;;19.70;69.70;;;;;;5148304;27;19911;-73
2022/04/16 09:48:54;;;;;;;;;;;19.40;70.10;;;;;;5148636;27;19914;-73
2022/04/16 09:51:22;;;;;;;;;;;19.20;70.60;;;;;;5151668;27;20154;-73
2022/04/16 09:53:50;;;;;;;;;;;19.30;71.50;;;;;;5151832;27;19918;-72
2022/04/16 09:56:16;;;;;;;;;;;19.60;70.80;;;;;;5151767;27;19949;-73
2022/04/16 09:58:44;;;;;;;;;;;19.80;69.50;;;;;;5151554;27;19942;-73
2022/04/16 10:01:11;;;;;;;;;;;19.90;69.50;;;;;;5151811;27;19907;-73
2022/04/16 10:03:38;;;;;;;;;;;20.20;69.20;;;;;;5151769;27;19960;-73
2022/04/16 10:06:03;;;;;;;;;;;21.00;70.10;;;;;;5151827;27;19907;-73
2022/04/16 10:08:31;;;;;;;;;;;21.90;69.10;;;;;;5151749;27;19918;-73
2022/04/16 10:10:58;;;;;;;;;;;22.40;67.70;;;;;;5151969;27;19918;-73
2022/04/16 10:13:23;;;;;;;;;;;23.00;66.90;;;;;;5151784;27;19911;-72
2022/04/16 10:16:01;;;;;;;;;;;23.70;67.10;;;;;;5151583;27;20109;-74
2022/04/16 10:18:27;;;;;;;;;;;24.50;67.40;;;;;;5132300;27;19915;-74
2022/04/16 10:20:54;;;;;;;;;;;25.30;65.80;;;;;;5151491;27;19907;-73
2022/04/16 10:23:26;;;;;;;;;;;25.70;64.50;;;;;;5150966;27;19907;-73
2022/04/16 10:25:51;;;;;;;;;;;26.00;63.70;;;;;;5150965;27;19947;-72
2022/04/16 10:28:20;;;;;;;;;;;25.70;61.40;;;;;;5151162;27;20006;-73
2022/04/16 10:30:50;;;;;;;;;;;25.50;61.70;;;;;;5115746;27;19911;-73
2022/04/16 10:33:16;;;;;;;;;;;25.50;61.30;;;;;;5151198;27;19951;-73
2022/04/16 10:35:56;;;;;;;;;;;25.90;61.70;;;;;;5151118;27;19919;-73
2022/04/16 10:38:24;;;;;;;;;;;26.30;60.50;;;;;;5150789;27;19934;-73
2022/04/16 10:40:57;;;;;;;;;;;26.50;58.30;;;;;;5150820;27;20006;-73
2022/04/16 10:43:27;;;;;;;;;;;26.50;57.50;;;;;;5150462;27;19915;-74
2022/04/16 10:45:57;;;;;;;;;;;26.50;57.30;;;;;;5150700;27;19911;-73
2022/04/16 10:48:22;;;;;;;;;;;26.30;56.90;;;;;;5150610;27;19911;-73
2022/04/16 10:50:48;;;;;;;;;;;25.80;56.30;;;;;;5150997;27;20017;-73
2022/04/16 10:53:15;;;;;;;;;;;25.20;56.10;;;;;;5151128;27;19972;-73
2022/04/16 10:55:48;;;;;;;;;;;25.00;56.80;;;;;;5150423;27;20439;-73
2022/04/16 10:58:13;;;;;;;;;;;25.10;56.70;;;;;;5150386;27;19911;-73
2022/04/16 11:00:46;;;;;;;;;;;25.30;56.30;;;;;;5150047;27;19907;-73
2022/04/16 11:03:11;;;;;;;;;;;25.30;56.20;;;;;;5150388;27;20315;-73
2022/04/16 11:05:37;;;;;;;;;;;25.60;56.90;;;;;;5150218;27;19965;-73
2022/04/16 11:08:04;;;;;;;;;;;26.20;57.70;;;;;;5150117;27;19917;-73
2022/04/16 11:10:30;;;;;;;;;;;26.60;56.60;;;;;;5149996;27;19917;-73
2022/04/16 11:12:57;;;;;;;;;;;26.40;54.90;;;;;;5150236;27;19907;-73
2022/04/16 11:15:26;;;;;;;;;;;25.90;55.00;;;;;;5131224;27;19915;-73
2022/04/16 11:17:55;;;;;;;;;;;25.60;55.80;;;;;;5149877;27;19911;-73
2022/04/16 11:20:22;;;;;;;;;;;26.00;56.90;;;;;;5149910;27;19907;-73
2022/04/16 11:22:47;;;;;;;;;;;26.60;56.90;;;;;;5131320;27;19911;-73
2022/04/16 11:25:13;;;;;;;;;;;26.70;55.40;;;;;;5149964;27;20390;-73
2022/04/16 11:35:54;;;;;;;;;;;26.20;53.70;;;;;;5150126;27;20283;-73
2022/04/16 11:38:30;;;;;;;;;;;26.20;54.00;;;;;;5149481;27;19911;-73
2022/04/16 11:40:59;;;;;;;;;;;25.60;53.30;;;;;;5149542;27;19907;-73
2022/04/16 11:43:25;;;;;;;;;;;24.70;53.60;;;;;;5149666;27;20010;-73
2022/04/16 11:45:51;;;;;;;;;;;24.60;55.40;;;;;;5149662;27;20276;-73
2022/04/16 11:48:17;;;;;;;;;;;24.90;55.20;;;;;;5149321;27;19960;-72
2022/04/16 11:50:43;;;;;;;;;;;25.00;55.20;;;;;;5149604;27;19911;-72
2022/04/16 11:53:11;;;;;;;;;;;25.30;54.50;;;;;;5149016;27;20001;-73
2022/04/16 11:55:43;;;;;;;;;;;25.30;54.20;;;;;;5149363;27;20404;-72
2022/04/16 11:58:09;;;;;;;;;;;25.30;54.20;;;;;;5148723;27;20182;-73
2022/04/16 12:00:35;;;;;;;;;;;25.40;55.00;;;;;;5148973;27;19911;-73
2022/04/16 12:03:00;;;;;;;;;;;25.70;54.40;;;;;;5130782;27;19917;-73
2022/04/16 12:05:27;;;;;;;;;;;25.50;54.20;;;;;;5149124;27;19915;-73
2022/04/16 12:07:52;;;;;;;;;;;25.70;55.00;;;;;;5148847;27;19907;-73
2022/04/16 12:10:18;;;;;;;;;;;26.00;54.60;;;;;;5148897;27;19911;-73
2022/04/16 12:12:48;;;;;;;;;;;26.30;55.00;;;;;;5147870;27;19954;-73
2022/04/16 12:15:22;;;;;;;;;;;26.60;54.50;;;;;;5148904;27;19998;-73
2022/04/16 12:17:48;;;;;;;;;;;26.60;52.90;;;;;;5125194;27;20322;-71
2022/04/16 12:20:14;;;;;;;;;;;25.60;52.00;;;;;;5149145;27;19991;-72
2022/04/16 12:22:49;;;;;;;;;;;24.50;52.40;;;;;;5148229;27;19951;-72
2022/04/16 12:25:19;;;;;;;;;;;23.50;52.90;;;;;;5148326;27;19914;-72
2022/04/16 12:27:46;;;;;;;;;;;23.00;54.20;;;;;;5148163;27;20263;-72
2022/04/16 12:30:13;;;;;;;;;;;22.50;54.10;;;;;;5129709;27;19923;-72
2022/04/16 12:32:39;;;;;;;;;;;21.90;54.40;;;;;;5148871;27;19914;-72
2022/04/16 12:35:04;;;;;;;;;;;21.30;55.00;;;;;;5148667;27;19918;-72
2022/04/16 12:37:30;;;;;;;;;;;20.90;55.60;;;;;;5148809;27;20238;-72
2022/04/16 12:39:56;;;;;;;;;;;20.60;56.00;;;;;;5148680;27;20349;-72
2022/04/16 12:42:21;;;;;;;;;;;20.40;56.60;;;;;;5148445;27;20246;-72
2022/04/16 12:44:47;;;;;;;;;;;20.30;56.90;;;;;;5148732;27;20330;-72
2022/04/16 12:47:13;;;;;;;;;;;20.00;56.90;;;;;;5148007;27;19907;-72
2022/04/16 12:49:39;;;;;;;;;;;19.80;57.10;;;;;;5148219;27;19933;-72
2022/04/16 12:52:05;;;;;;;;;;;19.70;57.60;;;;;;5147613;27;19975;-72
2022/04/16 12:54:31;;;;;;;;;;;19.50;57.90;;;;;;5147772;27;19907;-72
2022/04/16 12:56:56;;;;;;;;;;;19.40;58.70;;;;;;5129389;27;20273;-73
2022/04/16 12:59:22;;;;;;;;;;;19.70;59.30;;;;;;5147998;27;19915;-72
2022/04/16 13:01:48;;;;;;;;;;;19.80;58.80;;;;;;5148079;27;20332;-72
2022/04/16 13:04:13;;;;;;;;;;;19.80;58.90;;;;;;5148240;27;19915;-72
2022/04/16 13:06:39;;;;;;;;;;;19.90;59.30;;;;;;5148244;27;19922;-72
2022/04/16 13:09:04;;;;;;;;;;;20.30;59.70;;;;;;5148503;27;19933;-73
2022/04/16 13:11:31;;;;;;;;;;;20.70;59.20;;;;;;5148147;27;20035;-72
2022/04/16 13:13:57;;;;;;;;;;;21.00;58.40;;;;;;5149028;27;19933;-73
2022/04/16 13:16:22;;;;;;;;;;;21.20;59.20;;;;;;5148830;27;19911;-73
2022/04/16 13:18:49;;;;;;;;;;;21.70;58.60;;;;;;5148364;27;19922;-73
2022/04/16 13:21:15;;;;;;;;;;;22.10;57.50;;;;;;5148326;27;19915;-73
2022/04/16 13:23:40;;;;;;;;;;;21.90;57.20;;;;;;5150545;27;19917;-73
2022/04/16 13:26:06;;;;;;;;;;;21.70;57.50;;;;;;5152268;27;19918;-73
2022/04/16 13:28:31;;;;;;;;;;;21.40;57.50;;;;;;5151534;27;19917;-73
2022/04/16 13:30:57;;;;;;;;;;;21.10;58.20;;;;;;5150899;27;20350;-72
2022/04/16 13:33:23;;;;;;;;;;;21.00;58.00;;;;;;5132499;27;19912;-73
2022/04/16 13:35:49;;;;;;;;;;;20.90;57.90;;;;;;5151636;27;19972;-72
2022/04/16 13:38:14;;;;;;;;;;;20.70;57.90;;;;;;5151771;27;20384;-73
2022/04/16 13:43:24;;;;;;;;;;;20.10;58.30;;;;;;5152117;27;19913;-72
2022/04/16 13:45:50;;;;;;;;;;;20.00;58.20;;;;;;5151771;27;19915;-73
2022/04/16 13:48:15;;;;;;;;;;;19.80;58.30;;;;;;5151852;27;19911;-72
2022/04/16 13:50:41;;;;;;;;;;;19.80;58.60;;;;;;5151365;27;19928;-72
2022/04/16 13:53:06;;;;;;;;;;;19.70;58.90;;;;;;5152126;27;19911;-72
2022/04/16 13:55:32;;;;;;;;;;;19.80;58.90;;;;;;5151884;27;20318;-73
2022/04/16 13:57:58;;;;;;;;;;;19.80;58.90;;;;;;5133197;27;19923;-73
2022/04/16 14:00:23;;;;;;;;;;;19.90;58.70;;;;;;5151270;27;19953;-73
2022/04/16 14:02:49;;;;;;;;;;;19.80;58.50;;;;;;5151496;27;19907;-73
2022/04/16 14:07:59;;;;;;;;;;;19.60;58.60;;;;;;5151524;27;19922;-72
2022/04/16 14:10:27;;;;;;;;;;;19.50;58.80;;;;;;5151310;27;19911;-72
2022/04/16 14:12:53;;;;;;;;;;;19.30;59.00;;;;;;5132226;27;19928;-72
2022/04/16 14:15:19;;;;;;;;;;;19.00;59.40;;;;;;5151542;27;19915;-73
2022/04/16 14:17:44;;;;;;;;;;;18.80;59.80;;;;;;5150751;27;19984;-73
2022/04/16 14:20:10;;;;;;;;;;;18.60;60.10;;;;;;5132645;27;19915;-74
2022/04/16 14:22:36;;;;;;;;;;;18.50;60.40;;;;;;5151488;27;19907;-73
2022/04/16 14:25:02;;;;;;;;;;;18.60;60.60;;;;;;5150591;27;19930;-73
2022/04/16 14:27:27;;;;;;;;;;;18.70;60.70;;;;;;5151062;27;19911;-73
2022/04/16 14:29:53;;;;;;;;;;;18.80;60.80;;;;;;5132572;27;19918;-73
2022/04/16 14:32:19;;;;;;;;;;;18.80;60.90;;;;;;5150628;27;19927;-73
2022/04/16 14:34:45;;;;;;;;;;;18.90;61.10;;;;;;5149669;27;19918;-73
2022/04/16 14:37:10;;;;;;;;;;;18.90;61.30;;;;;;5150457;27;19919;-73
2022/04/16 14:39:36;;;;;;;;;;;19.10;61.40;;;;;;5150897;27;20356;-73
2022/04/16 14:42:02;;;;;;;;;;;19.10;61.20;;;;;;5150427;27;19918;-73